South Jamesport, NY (11970)

2:03 AM EDT on September 21, 2014 (GMT -0400)
outeast | Change Station
CLOSE
Current Station
Personal Weather Station
Location: Laurel, NY
Elevation: 23 ft
Nearby Weather Stations

Elev 23 ft 40.95 °N, 72.56 °W | Updated 7 minutes ago

Overcast
Overcast
68.5 °F
Feels Like 68.5 °F
N
4.0
Wind Variable Wind from SE
Gusts 5.0 mph

Today
High -- | Low -- °F
--% Chance of Precip.
Yesterday
High -- | Low -- °F
Precip. -- in
6:36 AM 6:49 PM
Waning Crescent, 8% visible
Pressure 30.04 in
Visibility 10.0 miles
Clouds Few 4100 ft
Scattered Clouds 6000 ft
Overcast 8500 ft
Dew Point 66 °F
Humidity 90%
Rainfall 0.00 in
Snow Depth Not available.
UV 0.0 out of 12
Pollen 2.70 out of 12
Air Quality Not available.
Flu Activity Not available.
METAR KFOK 210553Z VRB03KT 10SM FEW041 SCT060 OVC085 20/18 A3004 RMK AO2 RAE13 SLP171 P0001 60001 T02000183 10206 20156 58026

More Conditions Fewer Conditions

Pressure 30.04 in
Visibility 10.0 miles
Clouds Few 4100 ft
Scattered Clouds 6000 ft
Overcast 8500 ft
Dew Point 66 °F
Humidity 90%
Rainfall 0.00 in
Snow Depth Not available.
UV 0.0 out of 12
Pollen 2.70 out of 12
Air Quality Not available.
Flu Activity Not available.
METAR KFOK 210553Z VRB03KT 10SM FEW041 SCT060 OVC085 20/18 A3004 RMK AO2 RAE13 SLP171 P0001 60001 T02000183 10206 20156 58026

More Conditions Fewer Conditions

10-Day Weather Forecast

Almanac

Astronomy

Sep. 21, 2014 Rise Set
Actual Time 6:36 AM EDT 6:49 PM EDT
Civil Twilight 6:09 AM EDT 7:16 PM EDT
Nautical Twilight 5:37 AM EDT 7:48 PM EDT
Astronomical Twilight 5:04 AM EDT 8:21 PM EDT
Moon 4:06 AM EDT 5:24 PM EDT
Length of Visible Light 13h 07m
Length of Day
12h 12m
Tomorrow will be 2m 42s shorter.
Waning Crescent, 8% of the Moon is Illuminated
Today
Waning Crescent
Sep 24
New
Oct 1
First Quarter
Oct 8
Full
Oct 15
Last Quarter

Today's Extremes

State Highs State Lows

Community

WunderPhotos

Upload Photos

1,755,098 photos uploaded!

Nearby

Air Quality

  Air Quality AQ Index Pollutant
Yesterday Good
OZONE
Sunday Good
OZONE
Sunday Good
PM2.5
Monday Good
OZONE
Monday Good
PM2.5

Snow Depth

Station Depth Elevation
No new snow has been reported.

Earthquake Activity

City Distance Mag. Time & Date
No recent earthquake activity has been reported nearby.
Minimum magnitude displayed is 2.5.

Coastal Water Temperatures

Place Temperature
New London, CT 66.9 °F

Nearby Weather Stations